OOCL Kaohsiung — 9V9830 — position and weather

sailwx.info

Track history (hours):
 
Tides and Currents Weather Stations Pressure Air Temp Water Temp Dewpoint Dewpoint Depression Visibility Wind Speed Wind Dir Waves Ship Positions

OOCL Kaohsiung

Last reported at 2017-Mar-25 01:33 UTC. Time now 2017-Mar-30 04:57 UTC.
Position N 40°03' W 030°14'.

Length 280 m; draft 13.8 m.

Type: Cargo ship. MMSI: 566389000.

Date/timePositionNaut miles runAvg speedWind from/ knotsBaromVisibWave heightAir tempDewpointWater temp
2017-Mar-25 01:33N 40°03' W 030°14'1919.4
2017-Mar-25 00:33N 39°58' W 029°50'2019.7
2017-Mar-24 23:33N 39°54' W 029°25'2019.7
2017-Mar-24 22:34N 39°50' W 028°60'2019.7
2017-Mar-24 21:33N 39°45' W 028°35'2019.8
2017-Mar-24 20:33N 39°41' W 028°10'1919.4
2017-Mar-24 19:33N 39°37' W 027°45'2119.4
2017-Mar-24 18:28N 39°32' W 027°18'5919.8
2017-Mar-24 15:30N 39°19' W 026°04'8320.0
2017-Mar-24 11:21N 39°01' W 024°20'1719.9
2017-Mar-24 10:29N 38°58' W 023°58'89418.2
2017-Mar-22 09:14N 35°58' W 005°35'1217.3
2017-Mar-22 08:34N 36°01' W 005°21'1716.7
2017-Mar-22 07:32N 36°05' W 005°00'28418.5
2017-Mar-21 16:10N 37°04' E 000°45'1218.7
2017-Mar-21 15:31N 37°06' E 000°60'12219.0
2017-Mar-21 09:06N 37°38' E 003°28'3519.9
2017-Mar-21 07:19N 37°47' E 004°12'1519.7
2017-Mar-21 06:33N 37°51' E 004°30'20319.7
2017-Mar-20 20:15N 38°43' E 008°40'1419.2
2017-Mar-20 19:32N 38°48' E 008°56'1717.7
2017-Mar-20 18:33N 39°03' E 009°08'1010.3
2017-Mar-20 17:33N 39°12' E 009°05'1 0.5
2017-Mar-20 16:32N 39°13' E 009°04'0 0.0
2017-Mar-20 15:32N 39°13' E 009°04'0 0.0
2017-Mar-20 14:32N 39°13' E 009°04'0 0.0
2017-Mar-20 13:32N 39°13' E 009°04'0 0.0
2017-Mar-20 12:32N 39°13' E 009°04'0 0.0
2017-Mar-20 11:32N 39°13' E 009°04'0 0.0
2017-Mar-20 10:29N 39°13' E 009°04'0 0.0
2017-Mar-20 09:32N 39°13' E 009°04'0 0.0
2017-Mar-20 08:32N 39°13' E 009°04'0 0.0
2017-Mar-20 07:32N 39°13' E 009°04'0 0.0
2017-Mar-20 06:32N 39°13' E 009°04'0 0.4
2017-Mar-20 05:33N 39°13' E 009°04'4 3.9
2017-Mar-20 04:33N 39°10' E 009°06'9 9.4
2017-Mar-20 03:34N 39°02' E 009°14'9515.0
2017-Mar-19 21:14N 38°13' E 010°57'1318.5
2017-Mar-19 20:32N 38°06' E 011°11'1818.7
2017-Mar-19 19:33N 37°57' E 011°32'1919.1
2017-Mar-19 18:33N 37°45' E 011°51'1919.3
2017-Mar-19 17:33N 37°34' E 012°10'1918.8
2017-Mar-19 16:33N 37°23' E 012°30'1919.3
2017-Mar-19 15:33N 37°13' E 012°51'3818.9
2017-Mar-19 13:33N 36°53' E 013°31'1818.4
2017-Mar-19 12:33N 36°44' E 013°51'1918.9
2017-Mar-19 11:33N 36°34' E 014°11'1919.3
2017-Mar-19 10:33N 36°25' E 014°32'1918.7
2017-Mar-19 09:33N 36°20' E 014°54'1918.7
2017-Mar-19 08:33N 36°15' E 015°17'2018.8
2017-Mar-19 07:30N 36°10' E 015°40'1818.5
2017-Mar-19 06:33N 36°05' E 016°01'  
Track history (hours):
 
Tides and Currents Weather Stations Pressure Air Temp Water Temp Dewpoint Dewpoint Depression Visibility Wind Speed Wind Dir Waves Ship Positions

OOCL Kaohsiung

Last reported at 2017-Mar-25 01:33 UTC. Time now 2017-Mar-30 04:57 UTC.
Position N 40°03' W 030°14'.

Length 280 m; draft 13.8 m.

Type: Cargo ship. MMSI: 566389000.

Date/timePositionNaut miles runAvg speedWind from/ knotsBaromVisibWave heightAir tempDewpointWater temp
2017-Mar-25 01:33N 40°03' W 030°14'1919.4
2017-Mar-25 00:33N 39°58' W 029°50'2019.7
2017-Mar-24 23:33N 39°54' W 029°25'2019.7
2017-Mar-24 22:34N 39°50' W 028°60'2019.7
2017-Mar-24 21:33N 39°45' W 028°35'2019.8
2017-Mar-24 20:33N 39°41' W 028°10'1919.4
2017-Mar-24 19:33N 39°37' W 027°45'2119.4
2017-Mar-24 18:28N 39°32' W 027°18'5919.8
2017-Mar-24 15:30N 39°19' W 026°04'8320.0
2017-Mar-24 11:21N 39°01' W 024°20'1719.9
2017-Mar-24 10:29N 38°58' W 023°58'89418.2
2017-Mar-22 09:14N 35°58' W 005°35'1217.3
2017-Mar-22 08:34N 36°01' W 005°21'1716.7
2017-Mar-22 07:32N 36°05' W 005°00'28418.5
2017-Mar-21 16:10N 37°04' E 000°45'1218.7
2017-Mar-21 15:31N 37°06' E 000°60'12219.0
2017-Mar-21 09:06N 37°38' E 003°28'3519.9
2017-Mar-21 07:19N 37°47' E 004°12'1519.7
2017-Mar-21 06:33N 37°51' E 004°30'20319.7
2017-Mar-20 20:15N 38°43' E 008°40'1419.2
2017-Mar-20 19:32N 38°48' E 008°56'1717.7
2017-Mar-20 18:33N 39°03' E 009°08'1010.3
2017-Mar-20 17:33N 39°12' E 009°05'1 0.5
2017-Mar-20 16:32N 39°13' E 009°04'0 0.0
2017-Mar-20 15:32N 39°13' E 009°04'0 0.0
2017-Mar-20 14:32N 39°13' E 009°04'0 0.0
2017-Mar-20 13:32N 39°13' E 009°04'0 0.0
2017-Mar-20 12:32N 39°13' E 009°04'0 0.0
2017-Mar-20 11:32N 39°13' E 009°04'0 0.0
2017-Mar-20 10:29N 39°13' E 009°04'0 0.0
2017-Mar-20 09:32N 39°13' E 009°04'0 0.0
2017-Mar-20 08:32N 39°13' E 009°04'0 0.0
2017-Mar-20 07:32N 39°13' E 009°04'0 0.0
2017-Mar-20 06:32N 39°13' E 009°04'0 0.4
2017-Mar-20 05:33N 39°13' E 009°04'4 3.9
2017-Mar-20 04:33N 39°10' E 009°06'9 9.4
2017-Mar-20 03:34N 39°02' E 009°14'9515.0
2017-Mar-19 21:14N 38°13' E 010°57'1318.5
2017-Mar-19 20:32N 38°06' E 011°11'1818.7
2017-Mar-19 19:33N 37°57' E 011°32'1919.1
2017-Mar-19 18:33N 37°45' E 011°51'1919.3
2017-Mar-19 17:33N 37°34' E 012°10'1918.8
2017-Mar-19 16:33N 37°23' E 012°30'1919.3
2017-Mar-19 15:33N 37°13' E 012°51'3818.9
2017-Mar-19 13:33N 36°53' E 013°31'1818.4
2017-Mar-19 12:33N 36°44' E 013°51'1918.9
2017-Mar-19 11:33N 36°34' E 014°11'1919.3
2017-Mar-19 10:33N 36°25' E 014°32'1918.7
2017-Mar-19 09:33N 36°20' E 014°54'1918.7
2017-Mar-19 08:33N 36°15' E 015°17'2018.8
2017-Mar-19 07:30N 36°10' E 015°40'1818.5
2017-Mar-19 06:33N 36°05' E 016°01'  

Dump ship's entire track history